KMFI/MFI METAR and TAF weather

Enter ICAO airport designator
Station Type Date Time Source
KMFI METAR 2019/06/26 15:54 UTC NOAA

KMFI 261554Z AUTO 30007KT 10SM CLR 24/14 A3003 RMK AO2 SLP165 T02440144


Station Type Date Time Source
KMFI Decoded METAR 2019/06/26 15:54 UTC NOAA

MARSHFIELD MUNICIPAL AIRPORT, WI, United States (KMFI) 44-38N 90-11W 379M
Jun 26, 2019 - 11:54 AM EDT / 2019.06.26 1554 UTC
Wind: from the WNW (300 degrees) at 8 MPH (7 KT):0
Visibility: 10 mile(s):0
Sky conditions: clear
Temperature: 75.9 F (24.4 C)
Dew Point: 57.9 F (14.4 C)
Relative Humidity: 53%
Pressure (altimeter): 30.03 in. Hg (1016 hPa)
ob: KMFI 261554Z AUTO 30007KT 10SM CLR 24/14 A3003 RMK AO2 SLP165 T02440144
cycle: 16

Station Type Date Time Source
KMFI TAF UTC NOAA

Error!

Example: see airport list